createdAt,value
2019-05-22T00:01:16.083Z,12.20
2019-05-22T00:03:51.483Z,11.70
2019-05-22T00:06:24.155Z,15.13
2019-05-22T00:08:52.133Z,11.40
2019-05-22T00:11:21.248Z,11.33
2019-05-22T00:13:50.646Z,12.90
2019-05-22T00:16:21.391Z,12.00
2019-05-22T00:18:51.942Z,9.93
2019-05-22T00:21:20.906Z,10.97
2019-05-22T00:23:51.842Z,7.53
2019-05-22T00:26:21.416Z,8.83
2019-05-22T00:28:49.418Z,7.87
2019-05-22T00:31:18.855Z,10.47
2019-05-22T00:33:47.025Z,9.13
2019-05-22T00:36:16.895Z,10.23
2019-05-22T00:38:45.805Z,12.77
2019-05-22T00:41:20.020Z,10.30
2019-05-22T00:43:50.925Z,9.23
2019-05-22T00:46:20.283Z,11.20
2019-05-22T00:48:48.580Z,12.03
2019-05-22T00:51:26.139Z,8.70
2019-05-22T00:54:18.382Z,9.63
2019-05-22T00:56:56.400Z,10.67
2019-05-22T00:59:33.777Z,10.37
2019-05-22T01:02:05.475Z,9.07
2019-05-22T01:04:46.404Z,11.27
2019-05-22T01:07:17.854Z,10.40
2019-05-22T01:09:48.087Z,11.37
2019-05-22T01:12:26.655Z,10.80
2019-05-22T01:15:03.656Z,11.07
2019-05-22T01:17:35.767Z,13.80
2019-05-22T01:20:10.549Z,10.67
2019-05-22T01:22:41.216Z,12.07
2019-05-22T01:25:11.236Z,15.13
2019-05-22T01:27:41.561Z,11.87
2019-05-22T01:30:15.227Z,11.27
2019-05-22T01:32:47.198Z,14.20
2019-05-22T01:35:16.219Z,10.87
2019-05-22T01:37:44.154Z,14.77
2019-05-22T01:40:25.956Z,11.63
2019-05-22T01:42:56.218Z,14.07
2019-05-22T01:45:24.992Z,13.17
2019-05-22T01:48:01.819Z,12.47
2019-05-22T01:51:03.264Z,14.73
2019-05-22T01:53:36.901Z,11.77
2019-05-22T01:56:08.269Z,11.90
2019-05-22T01:58:40.650Z,10.00
2019-05-22T02:01:13.696Z,9.50
2019-05-22T02:03:44.103Z,7.33
2019-05-22T02:06:12.011Z,9.13
2019-05-22T02:08:47.271Z,7.20
2019-05-22T02:11:21.320Z,9.73
2019-05-22T02:13:56.700Z,8.33
2019-05-22T02:16:26.017Z,8.07
2019-05-22T02:18:53.937Z,6.80
2019-05-22T02:21:23.413Z,11.30
2019-05-22T02:23:52.180Z,7.30
2019-05-22T02:26:20.207Z,7.97
2019-05-22T02:28:48.942Z,6.97
2019-05-22T02:31:20.619Z,9.23
2019-05-22T02:34:07.101Z,8.40
2019-05-22T02:36:37.728Z,9.77
2019-05-22T02:39:20.758Z,7.40
2019-05-22T02:41:53.449Z,8.27
2019-05-22T02:44:22.499Z,8.17
2019-05-22T02:46:52.610Z,8.33
2019-05-22T02:49:22.725Z,9.77
2019-05-22T02:51:53.365Z,8.20
2019-05-22T02:54:21.823Z,8.17
2019-05-22T02:56:50.940Z,8.93
2019-05-22T02:59:20.548Z,7.70
2019-05-22T03:01:49.277Z,10.30
2019-05-22T03:04:19.030Z,9.77
2019-05-22T03:06:47.677Z,8.70
2019-05-22T03:09:30.271Z,10.90
2019-05-22T03:12:10.913Z,7.17
2019-05-22T03:14:39.522Z,9.13
2019-05-22T03:17:26.941Z,8.00
2019-05-22T03:20:00.844Z,10.07
2019-05-22T03:22:36.102Z,10.60
2019-05-22T03:25:10.769Z,8.10
2019-05-22T03:27:46.433Z,10.20
2019-05-22T03:30:26.375Z,8.07
2019-05-22T03:32:55.733Z,8.90
2019-05-22T03:35:26.038Z,7.73
2019-05-22T03:37:56.296Z,7.40
2019-05-22T03:40:26.368Z,7.40
2019-05-22T03:42:56.619Z,7.10
2019-05-22T03:45:25.035Z,8.47
2019-05-22T03:47:53.743Z,8.07
2019-05-22T03:50:23.358Z,6.43
2019-05-22T03:52:53.243Z,6.53
2019-05-22T03:55:22.393Z,5.30
2019-05-22T03:57:50.652Z,5.37
2019-05-22T04:00:21.178Z,5.70
2019-05-22T04:02:52.711Z,6.10
2019-05-22T04:05:21.764Z,6.50
2019-05-22T04:07:53.078Z,7.53
2019-05-22T04:10:25.350Z,8.20
2019-05-22T04:12:53.621Z,6.83
2019-05-22T04:15:22.716Z,7.90
2019-05-22T04:17:51.800Z,7.47
2019-05-22T04:20:20.933Z,6.90
2019-05-22T04:22:55.597Z,6.70
2019-05-22T04:25:24.311Z,7.73
2019-05-22T04:27:52.984Z,6.37
2019-05-22T04:30:20.979Z,7.77
2019-05-22T04:32:49.238Z,6.30
2019-05-22T04:35:20.536Z,6.57
2019-05-22T04:37:49.083Z,6.03
2019-05-22T04:40:56.169Z,6.10
2019-05-22T04:43:28.836Z,6.43
2019-05-22T04:45:58.717Z,7.10
2019-05-22T04:48:28.762Z,7.80
2019-05-22T04:51:18.075Z,7.20
2019-05-22T04:56:23.237Z,6.37
2019-05-22T04:58:52.151Z,6.60
2019-05-22T05:01:20.746Z,7.80
2019-05-22T05:03:49.221Z,7.80
2019-05-22T05:06:20.645Z,5.90
2019-05-22T05:08:48.815Z,5.70
2019-05-22T05:11:17.971Z,6.60
2019-05-22T05:13:46.279Z,5.70
2019-05-22T05:16:14.013Z,6.60
2019-05-22T05:18:42.260Z,6.87
2019-05-22T05:21:10.389Z,8.60
2019-05-22T05:23:38.179Z,7.63
2019-05-22T05:26:06.174Z,6.50
2019-05-22T05:28:34.126Z,5.73
2019-05-22T05:31:02.141Z,5.50
2019-05-22T05:33:38.666Z,6.93
2019-05-22T05:36:07.221Z,6.50
2019-05-22T05:38:38.330Z,5.77
2019-05-22T05:41:07.042Z,5.40
2019-05-22T05:43:36.585Z,5.73
2019-05-22T05:46:05.058Z,6.43
2019-05-22T05:48:35.389Z,8.73
2019-05-22T05:51:40.282Z,6.30
2019-05-22T05:54:20.024Z,5.77
2019-05-22T05:56:49.988Z,8.23
2019-05-22T05:59:21.295Z,9.03
2019-05-22T06:01:55.460Z,8.10
2019-05-22T06:04:34.982Z,7.53
2019-05-22T06:07:24.718Z,5.83
2019-05-22T06:11:00.131Z,6.70
2019-05-22T06:13:28.859Z,13.73
2019-05-22T06:17:28.306Z,12.90
2019-05-22T06:19:59.453Z,13.27
2019-05-22T06:22:28.829Z,8.30
2019-05-22T06:25:01.387Z,7.80
2019-05-22T06:27:43.596Z,13.10
2019-05-22T06:30:16.573Z,10.60
2019-05-22T06:33:33.717Z,9.30
2019-05-22T06:36:07.717Z,8.97
2019-05-22T06:39:14.847Z,8.33
2019-05-22T06:41:44.777Z,8.20
2019-05-22T06:44:32.721Z,9.20
2019-05-22T06:47:01.366Z,8.30
2019-05-22T06:49:41.290Z,9.60
2019-05-22T06:52:09.581Z,7.37
2019-05-22T06:54:38.659Z,8.27
2019-05-22T06:57:11.818Z,8.67
2019-05-22T06:59:42.877Z,8.47
2019-05-22T07:02:13.162Z,6.30
2019-05-22T07:04:42.088Z,5.30
2019-05-22T07:07:12.401Z,7.30
2019-05-22T07:09:41.376Z,6.73
2019-05-22T07:12:12.444Z,6.53
2019-05-22T07:15:19.934Z,4.70
2019-05-22T07:17:52.051Z,6.90
2019-05-22T07:20:21.781Z,6.20
2019-05-22T07:22:49.769Z,6.07
2019-05-22T07:25:18.090Z,8.30
2019-05-22T07:27:47.370Z,4.77
2019-05-22T07:30:16.018Z,6.93
2019-05-22T07:32:44.232Z,5.40
2019-05-22T07:35:12.786Z,7.17
2019-05-22T07:37:42.817Z,5.83
2019-05-22T07:40:12.118Z,5.20
2019-05-22T07:42:40.648Z,5.33
2019-05-22T07:45:09.080Z,5.00
2019-05-22T07:47:37.296Z,6.60
2019-05-22T07:50:05.905Z,6.63
2019-05-22T07:52:35.936Z,5.40
2019-05-22T07:55:04.442Z,5.20
2019-05-22T07:57:33.384Z,5.30
2019-05-22T08:00:01.481Z,5.43
2019-05-22T08:02:38.189Z,5.10
2019-05-22T08:05:06.339Z,5.00
2019-05-22T08:07:36.666Z,5.10
2019-05-22T08:10:05.614Z,5.70
2019-05-22T08:12:34.129Z,6.63
2019-05-22T08:15:03.019Z,5.40
2019-05-22T08:17:31.685Z,6.43
2019-05-22T08:19:59.403Z,7.90
2019-05-22T08:22:29.228Z,7.60
2019-05-22T08:24:57.541Z,7.57
2019-05-22T08:27:26.055Z,7.70
2019-05-22T08:29:56.862Z,8.37
2019-05-22T08:32:27.879Z,13.67
2019-05-22T08:34:56.235Z,9.73
2019-05-22T08:37:30.337Z,9.30
2019-05-22T08:39:59.972Z,9.70
2019-05-22T08:42:28.346Z,9.03
2019-05-22T08:44:56.367Z,8.87
2019-05-22T08:47:24.759Z,8.00
2019-05-22T08:49:53.613Z,8.50
2019-05-22T08:52:24.249Z,9.73
2019-05-22T08:54:53.726Z,10.30
2019-05-22T08:57:23.863Z,8.23
2019-05-22T08:59:51.704Z,9.27
2019-05-22T09:02:21.256Z,8.80
2019-05-22T09:04:49.312Z,9.17
2019-05-22T09:07:17.565Z,9.00
2019-05-22T09:09:45.341Z,8.63
2019-05-22T09:12:13.946Z,8.60
2019-05-22T09:14:42.371Z,8.70
2019-05-22T09:17:10.906Z,8.60
2019-05-22T09:19:38.946Z,8.40
2019-05-22T09:22:08.234Z,8.50
2019-05-22T09:24:38.523Z,10.93
2019-05-22T09:27:06.824Z,8.57
2019-05-22T09:29:34.944Z,8.60
2019-05-22T09:32:03.830Z,9.30
2019-05-22T09:34:32.339Z,10.80
2019-05-22T09:37:01.777Z,9.33
2019-05-22T09:39:31.246Z,9.27
2019-05-22T09:41:59.155Z,9.57
2019-05-22T09:44:27.219Z,9.00
2019-05-22T09:46:55.410Z,9.13
2019-05-22T09:49:24.417Z,10.03
2019-05-22T09:51:52.401Z,11.60
2019-05-22T09:54:20.657Z,11.70
2019-05-22T09:56:48.600Z,11.70
2019-05-22T09:59:16.798Z,9.53
2019-05-22T10:01:45.250Z,11.77
2019-05-22T10:04:13.453Z,12.97
2019-05-22T10:06:41.593Z,13.97
2019-05-22T10:09:09.706Z,14.40
2019-05-22T10:11:37.524Z,13.23
2019-05-22T10:14:06.921Z,14.70
2019-05-22T10:16:34.967Z,14.47
2019-05-22T10:19:03.543Z,14.10
2019-05-22T10:21:32.019Z,14.03
2019-05-22T10:23:59.905Z,14.73
2019-05-22T10:26:28.708Z,13.10
2019-05-22T10:28:56.805Z,14.90
2019-05-22T10:31:24.820Z,14.60
2019-05-22T10:33:53.234Z,12.47
2019-05-22T10:36:21.250Z,12.80
2019-05-22T10:38:49.515Z,14.93
2019-05-22T10:41:18.482Z,13.13
2019-05-22T10:43:46.711Z,13.80
2019-05-22T10:46:14.625Z,14.33
2019-05-22T10:48:42.740Z,16.20
2019-05-22T10:51:11.318Z,14.33
2019-05-22T10:53:39.266Z,13.20
2019-05-22T10:56:07.403Z,13.80
2019-05-22T10:58:35.324Z,13.73
2019-05-22T11:01:03.493Z,13.50
2019-05-22T11:03:32.585Z,12.80
2019-05-22T11:06:07.106Z,13.87
2019-05-22T11:08:34.394Z,12.53
2019-05-22T11:11:01.410Z,11.33
2019-05-22T11:13:29.243Z,10.50
2019-05-22T11:15:58.473Z,10.33
2019-05-22T11:18:27.096Z,10.73
2019-05-22T11:20:55.257Z,9.87
2019-05-22T11:23:24.457Z,11.30
2019-05-22T11:25:52.337Z,9.80
2019-05-22T11:28:20.406Z,10.20
2019-05-22T11:30:48.485Z,9.80
2019-05-22T11:33:16.345Z,10.17
2019-05-22T11:35:45.026Z,9.93
2019-05-22T11:38:13.611Z,11.23
2019-05-22T11:40:41.618Z,10.40
2019-05-22T11:43:12.377Z,10.03
2019-05-22T11:45:44.995Z,11.47
2019-05-22T11:48:11.087Z,12.53
2019-05-22T11:50:40.310Z,11.40
2019-05-22T11:53:09.073Z,11.17
2019-05-22T11:55:44.714Z,11.57
2019-05-22T11:58:08.652Z,10.97
2019-05-22T12:00:37.583Z,12.70
2019-05-22T12:03:06.014Z,12.30
2019-05-22T12:05:38.764Z,12.10
2019-05-22T12:08:07.494Z,12.03
2019-05-22T12:10:37.289Z,10.93
2019-05-22T12:13:06.720Z,10.17
2019-05-22T12:15:35.396Z,10.80
2019-05-22T12:18:04.567Z,10.17
2019-05-22T12:20:32.976Z,10.83
2019-05-22T12:23:01.440Z,12.13
2019-05-22T12:25:29.736Z,11.00
2019-05-22T12:27:59.282Z,11.10
2019-05-22T12:30:28.154Z,10.70
2019-05-22T12:32:57.309Z,10.60
2019-05-22T12:35:25.994Z,10.50
2019-05-22T12:37:55.267Z,10.60
2019-05-22T12:40:24.507Z,12.07
2019-05-22T12:42:53.240Z,10.30
2019-05-22T12:45:31.410Z,11.53
2019-05-22T12:48:00.801Z,10.07
2019-05-22T12:50:30.425Z,11.77
2019-05-22T12:53:00.669Z,11.67
2019-05-22T12:55:29.194Z,9.80
2019-05-22T12:57:59.483Z,10.40
2019-05-22T13:00:29.902Z,11.63
2019-05-22T13:03:00.339Z,12.40
2019-05-22T13:05:29.462Z,13.67
2019-05-22T13:07:57.884Z,10.30
2019-05-22T13:10:26.587Z,48.93
2019-05-22T13:12:55.160Z,13.73
2019-05-22T13:15:25.368Z,12.60
2019-05-22T13:17:54.887Z,12.10
2019-05-22T13:20:41.005Z,11.07
2019-05-22T13:22:59.400Z,10.53
2019-05-22T13:25:33.435Z,11.07
2019-05-22T13:28:05.111Z,11.73
2019-05-22T13:30:37.022Z,12.67
2019-05-22T13:33:05.368Z,13.30
2019-05-22T13:35:34.565Z,15.17
2019-05-22T13:38:04.142Z,13.40
2019-05-22T13:40:32.520Z,13.20
2019-05-22T13:43:01.298Z,14.23
2019-05-22T13:45:31.252Z,14.53
2019-05-22T13:47:59.459Z,12.50
2019-05-22T13:50:28.971Z,13.60
2019-05-22T13:53:00.424Z,13.70
2019-05-22T13:55:28.681Z,13.70
2019-05-22T13:57:58.273Z,11.23
2019-05-22T14:00:27.607Z,11.03
2019-05-22T14:02:56.164Z,10.97
2019-05-22T14:05:26.922Z,10.43
2019-05-22T14:07:55.420Z,10.63
2019-05-22T14:10:26.798Z,13.93
2019-05-22T14:12:55.617Z,9.97
2019-05-22T14:15:24.949Z,9.20
2019-05-22T14:17:52.916Z,8.37
2019-05-22T14:20:21.865Z,9.33
2019-05-22T14:22:49.788Z,8.67
2019-05-22T14:25:20.366Z,9.43
2019-05-22T14:27:48.658Z,8.20
2019-05-22T14:30:21.778Z,7.67
2019-05-22T14:32:49.614Z,6.60
2019-05-22T14:35:19.763Z,5.70
2019-05-22T14:37:49.973Z,6.30
2019-05-22T14:40:18.385Z,6.10
2019-05-22T14:42:46.381Z,7.13
2019-05-22T14:45:14.760Z,6.00
2019-05-22T14:47:43.746Z,5.93
2019-05-22T14:50:13.538Z,5.87
2019-05-22T14:52:41.539Z,8.07
2019-05-22T14:55:09.831Z,5.17
2019-05-22T14:57:38.323Z,4.37
2019-05-22T15:00:09.470Z,5.63
2019-05-22T15:02:39.912Z,4.80
2019-05-22T15:05:09.299Z,5.30
2019-05-22T15:07:44.659Z,7.00
2019-05-22T15:10:16.842Z,7.93
2019-05-22T15:12:44.646Z,4.67
2019-05-22T15:15:14.584Z,4.90
2019-05-22T15:17:43.163Z,5.73
2019-05-22T15:20:18.196Z,5.27
2019-05-22T15:22:49.107Z,5.20
2019-05-22T15:34:03.550Z,5.53
2019-05-22T15:39:22.981Z,6.70
2019-05-22T15:41:51.390Z,5.23
2019-05-22T15:44:19.952Z,5.27
2019-05-22T15:46:49.342Z,6.30
2019-05-22T15:49:19.049Z,5.30
2019-05-22T15:51:48.107Z,5.00
2019-05-22T15:54:18.930Z,4.83
2019-05-22T15:56:47.661Z,4.40
2019-05-22T15:59:17.324Z,5.20
2019-05-22T16:01:49.229Z,5.13
2019-05-22T16:04:19.605Z,5.53
2019-05-22T16:06:48.780Z,4.83
2019-05-22T16:09:17.331Z,4.67
2019-05-22T16:11:51.468Z,5.27
2019-05-22T16:14:21.489Z,4.27
2019-05-22T16:16:50.689Z,3.10
2019-05-22T16:19:24.670Z,7.00
2019-05-22T16:21:55.146Z,2.90
2019-05-22T16:24:23.803Z,3.77
2019-05-22T16:26:51.904Z,1.70
2019-05-22T16:29:21.185Z,5.23
2019-05-22T16:31:50.136Z,1.90
2019-05-22T16:34:18.229Z,2.00
2019-05-22T16:36:46.545Z,2.70
2019-05-22T16:39:16.574Z,2.90
2019-05-22T16:41:45.010Z,3.90
2019-05-22T16:44:14.349Z,4.33
2019-05-22T16:46:44.253Z,4.43
2019-05-22T16:49:13.168Z,4.63
2019-05-22T16:51:44.126Z,2.60
2019-05-22T16:54:12.323Z,3.57
2019-05-22T16:56:42.382Z,2.90
2019-05-22T16:59:12.007Z,2.63
2019-05-22T17:01:57.849Z,3.83
2019-05-22T17:04:11.575Z,2.77
2019-05-22T17:06:43.756Z,2.73
2019-05-22T17:09:13.617Z,2.27
2019-05-22T17:11:41.606Z,5.40
2019-05-22T17:14:12.453Z,3.10
2019-05-22T17:16:42.656Z,3.73
2019-05-22T17:19:26.358Z,4.67
2019-05-22T17:21:43.616Z,2.43
2019-05-22T17:24:13.596Z,3.00
2019-05-22T17:26:41.760Z,6.27
2019-05-22T17:29:10.730Z,5.30
2019-05-22T17:31:38.829Z,3.50
2019-05-22T17:34:26.292Z,5.60
2019-05-22T17:36:56.780Z,12.13
2019-05-22T17:39:26.328Z,3.07
2019-05-22T17:41:56.494Z,4.10
2019-05-22T17:44:25.901Z,6.50
2019-05-22T17:46:53.940Z,6.03
2019-05-22T17:49:22.171Z,4.27
2019-05-22T17:51:51.330Z,5.87
2019-05-22T17:54:20.770Z,5.13
2019-05-22T17:56:48.777Z,4.13
2019-05-22T17:59:16.843Z,2.83
2019-05-22T18:01:46.696Z,4.07
2019-05-22T18:04:15.191Z,3.80
2019-05-22T18:06:43.260Z,3.27
2019-05-22T18:09:15.021Z,3.80
2019-05-22T18:11:44.122Z,3.77
2019-05-22T18:14:14.461Z,4.87
2019-05-22T18:16:43.483Z,5.90
2019-05-22T18:19:11.764Z,5.83
2019-05-22T18:21:40.622Z,5.97
2019-05-22T18:24:09.856Z,8.60
2019-05-22T18:26:37.713Z,8.63
2019-05-22T18:29:05.771Z,7.73
2019-05-22T18:31:33.915Z,7.17
2019-05-22T18:34:01.758Z,9.00
2019-05-22T18:36:29.735Z,8.67
2019-05-22T18:38:57.804Z,7.47
2019-05-22T18:41:26.030Z,6.83
2019-05-22T18:43:56.183Z,4.40
2019-05-22T18:46:24.872Z,5.57
2019-05-22T18:48:52.643Z,5.17
2019-05-22T18:51:21.192Z,3.60
2019-05-22T18:53:49.540Z,4.13
2019-05-22T18:56:17.587Z,3.50
2019-05-22T18:58:45.875Z,3.83
2019-05-22T19:01:16.293Z,3.83
2019-05-22T19:03:44.168Z,4.20
2019-05-22T19:06:12.163Z,3.37
2019-05-22T19:08:40.677Z,3.53
2019-05-22T19:11:09.485Z,3.70
2019-05-22T19:13:37.873Z,5.97
2019-05-22T19:16:06.824Z,3.70
2019-05-22T19:18:34.815Z,4.10
2019-05-22T19:21:03.517Z,4.67
2019-05-22T19:23:31.494Z,4.17
2019-05-22T19:25:59.306Z,3.90
2019-05-22T19:28:42.040Z,3.53
2019-05-22T19:30:57.548Z,4.47
2019-05-22T19:33:26.198Z,3.93
2019-05-22T19:35:54.186Z,4.27
2019-05-22T19:38:23.058Z,4.57
2019-05-22T19:40:51.769Z,4.13
2019-05-22T19:43:19.885Z,6.43
2019-05-22T19:45:48.326Z,3.80
2019-05-22T19:48:17.001Z,3.50
2019-05-22T19:50:46.617Z,5.73
2019-05-22T19:53:19.300Z,3.80
2019-05-22T19:55:47.583Z,5.23
2019-05-22T19:58:15.444Z,3.83
2019-05-22T20:00:44.748Z,6.30
2019-05-22T20:03:12.840Z,4.37
2019-05-22T20:05:41.159Z,4.33
2019-05-22T20:08:10.553Z,3.77
2019-05-22T20:10:39.115Z,3.97
2019-05-22T20:13:09.387Z,4.40
2019-05-22T20:15:37.943Z,4.80
2019-05-22T20:18:07.309Z,3.87
2019-05-22T20:20:36.695Z,7.90
2019-05-22T20:23:04.768Z,4.57
2019-05-22T20:25:34.392Z,6.53
2019-05-22T20:28:06.410Z,4.07
2019-05-22T20:30:34.256Z,5.60
2019-05-22T20:33:03.289Z,6.53
2019-05-22T20:35:31.763Z,4.60
2019-05-22T20:38:01.168Z,4.87
2019-05-22T20:40:29.626Z,5.53
2019-05-22T20:42:58.904Z,5.50
2019-05-22T20:45:29.101Z,5.37
2019-05-22T20:48:13.889Z,5.63
2019-05-22T20:53:19.167Z,5.27
2019-05-22T20:55:49.010Z,4.60
2019-05-22T20:58:18.713Z,4.80
2019-05-22T21:00:48.418Z,6.77
2019-05-22T21:03:17.718Z,7.30
2019-05-22T21:05:45.623Z,4.23
2019-05-22T21:08:15.352Z,5.60
2019-05-22T21:10:46.779Z,5.20
2019-05-22T21:13:18.638Z,5.23
2019-05-22T21:15:49.181Z,5.13
2019-05-22T21:18:20.307Z,5.30
2019-05-22T21:20:54.700Z,5.80
2019-05-22T21:23:19.989Z,6.47
2019-05-22T21:25:58.541Z,5.83
2019-05-22T21:28:27.485Z,7.00
2019-05-22T21:30:56.967Z,9.20
2019-05-22T21:33:26.006Z,15.50
2019-05-22T21:35:55.285Z,12.47
2019-05-22T21:38:25.045Z,14.73
2019-05-22T21:40:55.942Z,12.93
2019-05-22T21:43:23.944Z,14.63
2019-05-22T21:45:53.298Z,17.17
2019-05-22T21:48:21.909Z,17.87
2019-05-22T21:50:49.717Z,17.73
2019-05-22T21:53:19.248Z,17.80
2019-05-22T21:56:02.070Z,15.67
2019-05-22T21:58:18.378Z,14.20
2019-05-22T22:01:22.195Z,18.03
2019-05-22T22:03:57.624Z,15.13
2019-05-22T22:06:26.651Z,14.63
2019-05-22T22:08:55.263Z,13.90
2019-05-22T22:11:25.815Z,13.83
2019-05-22T22:13:54.711Z,18.80
2019-05-22T22:16:22.530Z,17.07
2019-05-22T22:18:52.935Z,12.30
2019-05-22T22:21:21.589Z,15.27
2019-05-22T22:23:50.162Z,12.37
2019-05-22T22:26:25.405Z,11.30
2019-05-22T22:28:48.148Z,16.43
2019-05-22T22:31:20.173Z,16.23
2019-05-22T22:33:55.105Z,12.60
2019-05-22T22:36:23.149Z,17.97
2019-05-22T22:38:52.722Z,13.17
2019-05-22T22:41:20.903Z,21.80
2019-05-22T22:43:52.751Z,14.90
2019-05-22T22:46:39.017Z,12.23
2019-05-22T22:49:12.550Z,18.70
2019-05-22T22:51:42.302Z,13.10
2019-05-22T22:54:12.288Z,12.73
2019-05-22T22:56:41.541Z,10.80
2019-05-22T22:59:09.842Z,10.90
2019-05-22T23:01:40.754Z,13.13
2019-05-22T23:04:10.899Z,11.23
2019-05-22T23:06:40.921Z,12.43
2019-05-22T23:09:12.070Z,12.63
2019-05-22T23:11:41.211Z,14.07
2019-05-22T23:14:10.553Z,11.30
2019-05-22T23:16:40.237Z,12.10
2019-05-22T23:19:43.901Z,10.73
2019-05-22T23:22:19.836Z,16.10
2019-05-22T23:24:49.269Z,17.67
2019-05-22T23:27:18.835Z,14.23
2019-05-22T23:29:47.770Z,14.00
2019-05-22T23:32:18.326Z,11.70
2019-05-22T23:34:47.459Z,13.67
2019-05-22T23:37:17.193Z,13.27
2019-05-22T23:39:47.116Z,12.50
2019-05-22T23:42:21.952Z,16.17
2019-05-22T23:44:53.860Z,14.10
2019-05-22T23:47:23.552Z,13.27
2019-05-22T23:49:52.826Z,12.07
2019-05-22T23:52:21.444Z,15.17
2019-05-22T23:54:56.281Z,16.90
2019-05-22T23:57:27.520Z,11.70
